Time;durP1;ratioP1;P1;durP2;ratioP2;P2;SDS_P1;SDS_P2;PMS_P1;PMS_P2;Temp;Humidity;BMP_temperature;BMP_pressure;BME280_temperature;BME280_humidity;BME280_pressure;Samples;Min_cycle;Max_cycle;Signal;HPM_P1;HPM_P2
2021/03/26 00:03:35;;;;;;;11.07;9.32;;;;;;;;;;10080471;28;20075;-60
2021/03/26 00:08:32;;;;;;;9.30;8.40;;;;;;;;;;10079856;29;20497;-61
2021/03/26 00:13:30;;;;;;;11.43;8.65;;;;;;;;;;10080264;28;20429;-61
2021/03/26 00:18:27;;;;;;;9.07;8.02;;;;;;;;;;10078927;29;20183;-61
2021/03/26 00:23:26;;;;;;;19.45;15.68;;;;;;;;;;10079613;29;20087;-60
2021/03/26 00:28:23;;;;;;;9.52;8.63;;;;;;;;;;10079747;29;20374;-60
2021/03/26 00:33:21;;;;;;;16.17;14.50;;;;;;;;;;10079428;29;20054;-61
2021/03/26 00:38:18;;;;;;;10.18;9.15;;;;;;;;;;10079526;29;20046;-60
2021/03/26 00:43:16;;;;;;;11.68;8.65;;;;;;;;;;10078796;28;20087;-60
2021/03/26 00:48:14;;;;;;;8.40;6.88;;;;;;;;;;10078888;29;20476;-60
2021/03/26 00:53:14;;;;;;;8.07;7.07;;;;;;;;;;10078877;28;20051;-60
2021/03/26 00:58:12;;;;;;;9.55;8.55;;;;;;;;;;10060783;29;20070;-59
2021/03/26 01:03:11;;;;;;;9.48;8.50;;;;;;;;;;10061441;29;20082;-61
2021/03/26 01:08:10;;;;;;;10.63;9.20;;;;;;;;;;10061076;29;20062;-61
2021/03/26 01:13:08;;;;;;;10.02;8.20;;;;;;;;;;10060117;28;20131;-61
2021/03/26 01:18:08;;;;;;;10.35;8.77;;;;;;;;;;10077956;28;20055;-61
2021/03/26 01:23:08;;;;;;;39.88;23.15;;;;;;;;;;10060015;29;20068;-60
2021/03/26 01:28:08;;;;;;;13.95;10.63;;;;;;;;;;10076926;29;20369;-62
2021/03/26 01:33:06;;;;;;;7.95;6.55;;;;;;;;;;10059865;29;20048;-61
2021/03/26 01:38:03;;;;;;;9.45;8.30;;;;;;;;;;10077286;28;20086;-60
2021/03/26 01:43:04;;;;;;;14.00;8.75;;;;;;;;;;10059624;29;20055;-61
2021/03/26 01:48:01;;;;;;;10.85;8.85;;;;;;;;;;10076069;28;20090;-61
2021/03/26 01:53:00;;;;;;;13.77;9.32;;;;;;;;;;10076836;29;20098;-61
2021/03/26 01:57:59;;;;;;;31.52;22.90;;;;;;;;;;10059506;29;20058;-61
2021/03/26 02:03:13;;;;;;;19.48;14.60;;;;;;;;;;10059344;29;20097;-61
2021/03/26 02:08:19;;;;;;;14.43;12.52;;;;;;;;;;10058849;29;20055;-60
2021/03/26 02:13:26;;;;;;;14.13;11.40;;;;;;;;;;10076525;29;20074;-61
2021/03/26 02:18:31;;;;;;;17.83;16.05;;;;;;;;;;10058789;29;20536;-61
2021/03/26 02:23:30;;;;;;;8.77;7.70;;;;;;;;;;10075338;29;20401;-60
2021/03/26 02:28:41;;;;;;;9.95;8.95;;;;;;;;;;10064613;29;20063;-60
2021/03/26 02:33:57;;;;;;;;;;;;;;;;;;10087819;28;20054;-61
2021/03/26 02:38:57;;;;;;;18.08;13.10;;;;;;;;;;10066804;29;19922;-60
2021/03/26 02:44:02;;;;;;;10.20;8.70;;;;;;;;;;10066545;29;20493;-61
2021/03/26 02:49:03;;;;;;;9.00;8.02;;;;;;;;;;10082235;29;20047;-61
2021/03/26 02:54:05;;;;;;;10.88;8.73;;;;;;;;;;10064003;29;20063;-60
2021/03/26 02:59:09;;;;;;;8.75;7.40;;;;;;;;;;10063141;29;20059;-60
2021/03/26 03:04:14;;;;;;;11.32;7.93;;;;;;;;;;10063108;29;20093;-61
2021/03/26 03:09:13;;;;;;;180.35;92.78;;;;;;;;;;10079778;29;20063;-61
2021/03/26 03:14:12;;;;;;;11.13;7.85;;;;;;;;;;10078409;29;20079;-61
2021/03/26 03:19:12;;;;;;;9.05;7.85;;;;;;;;;;10063127;29;20055;-61
2021/03/26 03:24:11;;;;;;;9.75;7.60;;;;;;;;;;10079742;29;20078;-60
2021/03/26 03:29:34;;;;;;;9.98;7.82;;;;;;;;;;10079678;29;20055;-61
2021/03/26 03:34:49;;;;;;;10.35;7.72;;;;;;;;;;10079992;29;20071;-60
2021/03/26 03:39:51;;;;;;;12.60;9.65;;;;;;;;;;10079122;28;20047;-60
2021/03/26 03:44:54;;;;;;;10.90;8.85;;;;;;;;;;10062024;29;20055;-60
2021/03/26 03:49:56;;;;;;;13.50;11.65;;;;;;;;;;10060763;29;20505;-60
2021/03/26 03:55:25;;;;;;;11.23;9.50;;;;;;;;;;10393080;27;20739;-59
2021/03/26 04:00:26;;;;;;;;;;;;;;;;;;10393798;28;20048;-60
2021/03/26 04:05:34;;;;;;;12.30;8.40;;;;;;;;;;10391919;28;19919;-60
2021/03/26 04:10:39;;;;;;;11.52;8.77;;;;;;;;;;10391841;28;20056;-60
2021/03/26 04:15:40;;;;;;;59.50;53.10;;;;;;;;;;10393149;28;20059;-60
2021/03/26 04:20:44;;;;;;;56.33;31.35;;;;;;;;;;10391862;28;20052;-61
2021/03/26 04:25:56;;;;;;;423.23;223.68;;;;;;;;;;10391123;28;20056;-60
2021/03/26 04:31:25;;;;;;;31.65;22.77;;;;;;;;;;10392232;28;20079;-60
2021/03/26 04:36:39;;;;;;;22.92;18.80;;;;;;;;;;10390215;28;20081;-59
2021/03/26 04:42:01;;;;;;;17.48;15.63;;;;;;;;;;10388323;28;20067;-59
2021/03/26 04:47:01;;;;;;;15.65;13.40;;;;;;;;;;10386531;28;20083;-59
2021/03/26 04:52:12;;;;;;;16.13;12.55;;;;;;;;;;10380641;28;20080;-58
2021/03/26 04:57:18;;;;;;;22.45;14.57;;;;;;;;;;10364429;28;20087;-59
2021/03/26 05:02:16;;;;;;;20.42;14.27;;;;;;;;;;10387492;28;20497;-59
2021/03/26 05:07:20;;;;;;;12.02;9.00;;;;;;;;;;10362221;28;20055;-59
2021/03/26 05:12:24;;;;;;;9.25;7.05;;;;;;;;;;10322201;28;20061;-59
2021/03/26 05:17:26;;;;;;;12.60;7.75;;;;;;;;;;10322009;28;20048;-60
2021/03/26 05:22:45;;;;;;;8.95;7.93;;;;;;;;;;10321718;28;20076;-60
2021/03/26 05:28:03;;;;;;;10.00;7.65;;;;;;;;;;10327436;28;20059;-60
2021/03/26 05:33:03;;;;;;;10.38;8.75;;;;;;;;;;10320289;28;20509;-60
2021/03/26 05:38:13;;;;;;;10.20;8.10;;;;;;;;;;10319944;28;20053;-60
2021/03/26 05:43:47;;;;;;;9.00;7.55;;;;;;;;;;10325549;28;20084;-60
2021/03/26 05:48:54;;;;;;;10.38;8.48;;;;;;;;;;10319305;28;20063;-60
2021/03/26 05:53:56;;;;;;;13.20;9.82;;;;;;;;;;10318498;28;20095;-60
2021/03/26 05:59:34;;;;;;;10.00;7.88;;;;;;;;;;10319012;28;20056;-60
2021/03/26 06:04:52;;;;;;;17.95;12.50;;;;;;;;;;10177288;28;20092;-60
2021/03/26 06:10:42;;;;;;;17.30;11.98;;;;;;;;;;10310982;28;20055;-61
2021/03/26 06:16:28;;;;;;;21.70;11.55;;;;;;;;;;10328267;28;20470;-60
2021/03/26 06:21:58;;;;;;;90.75;18.75;;;;;;;;;;10330635;28;20514;-59
2021/03/26 06:27:26;;;;;;;45.13;33.67;;;;;;;;;;10319158;28;20368;-59
2021/03/26 06:32:53;;;;;;;26.23;20.45;;;;;;;;;;10326029;28;20525;-60
2021/03/26 06:38:10;;;;;;;32.53;20.45;;;;;;;;;;10348576;28;20040;-61
2021/03/26 06:43:18;;;;;;;33.90;17.10;;;;;;;;;;10331342;28;20079;-60
2021/03/26 06:48:28;;;;;;;17.92;12.95;;;;;;;;;;10345736;28;20055;-60
2021/03/26 06:53:28;;;;;;;32.28;20.95;;;;;;;;;;10353657;28;20094;-61
2021/03/26 06:58:40;;;;;;;87.90;59.85;;;;;;;;;;10345192;28;20501;-61
2021/03/26 07:04:04;;;;;;;25.02;19.15;;;;;;;;;;10285133;28;20072;-61
2021/03/26 07:09:14;;;;;;;30.58;20.30;;;;;;;;;;10354808;28;20044;-62
2021/03/26 07:14:19;;;;;;;39.47;22.83;;;;;;;;;;10317742;28;20095;-60
2021/03/26 07:19:16;;;;;;;;;;;;;;;;;;10317400;28;20040;-60
2021/03/26 07:24:32;;;;;;;17.63;12.88;;;;;;;;;;10334821;28;20011;-60
2021/03/26 07:29:44;;;;;;;15.20;13.32;;;;;;;;;;10333316;28;20501;-61
2021/03/26 07:34:49;;;;;;;18.15;12.98;;;;;;;;;;10328815;28;20083;-60
2021/03/26 07:39:46;;;;;;;;;;;;;;;;;;10331111;28;20084;-59
2021/03/26 07:50:39;;;;;;;22.30;15.88;;;;;;;;;;10316147;28;20036;-59
2021/03/26 07:55:39;;;;;;;27.50;19.92;;;;;;;;;;10316552;28;20072;-60
2021/03/26 08:00:41;;;;;;;15.70;12.18;;;;;;;;;;10321251;28;20115;-60
2021/03/26 08:05:44;;;;;;;15.18;11.63;;;;;;;;;;10324874;28;20074;-59
2021/03/26 08:10:46;;;;;;;24.52;15.18;;;;;;;;;;10323148;28;20126;-60
2021/03/26 08:15:55;;;;;;;23.75;16.23;;;;;;;;;;10334687;28;20075;-61
2021/03/26 08:20:58;;;;;;;17.25;12.93;;;;;;;;;;10328529;28;20473;-61
2021/03/26 08:26:02;;;;;;;16.35;10.75;;;;;;;;;;10347747;28;20109;-60
2021/03/26 08:31:09;;;;;;;12.30;9.13;;;;;;;;;;10327255;28;20068;-59
2021/03/26 08:36:28;;;;;;;14.40;12.70;;;;;;;;;;10330310;28;20080;-62
2021/03/26 08:41:28;;;;;;;15.57;13.55;;;;;;;;;;10321656;28;20080;-60
2021/03/26 08:46:26;;;;;;;25.77;17.85;;;;;;;;;;10322795;28;20060;-60
2021/03/26 08:51:42;;;;;;;17.65;12.98;;;;;;;;;;10339479;28;20064;-60
2021/03/26 08:56:44;;;;;;;18.30;11.73;;;;;;;;;;10330176;28;20552;-59
2021/03/26 09:01:49;;;;;;;17.30;11.98;;;;;;;;;;10359841;28;20048;-60
2021/03/26 09:06:50;;;;;;;17.53;12.23;;;;;;;;;;10340884;28;20040;-61
2021/03/26 09:12:06;;;;;;;19.15;13.35;;;;;;;;;;10354055;28;20087;-59
2021/03/26 09:17:11;;;;;;;17.65;12.40;;;;;;;;;;10357037;28;20040;-62
2021/03/26 09:22:09;;;;;;;;;;;;;;;;;;10332687;28;20069;-60
2021/03/26 09:27:11;;;;;;;14.90;11.25;;;;;;;;;;10334920;28;19955;-60
2021/03/26 09:32:14;;;;;;;14.00;9.40;;;;;;;;;;10322603;28;20076;-61
2021/03/26 09:37:14;;;;;;;20.90;14.35;;;;;;;;;;10321628;28;20075;-61
2021/03/26 09:42:29;;;;;;;17.70;12.73;;;;;;;;;;10321223;28;20084;-61
2021/03/26 09:47:30;;;;;;;13.83;10.17;;;;;;;;;;10328603;28;20524;-61
2021/03/26 09:52:30;;;;;;;12.02;9.43;;;;;;;;;;10343071;28;20079;-61
2021/03/26 09:57:34;;;;;;;13.90;8.93;;;;;;;;;;10339369;28;20052;-61
2021/03/26 10:02:34;;;;;;;14.90;11.52;;;;;;;;;;10347062;28;20075;-62
2021/03/26 10:07:37;;;;;;;9.88;8.20;;;;;;;;;;10335132;28;20045;-60
2021/03/26 10:12:40;;;;;;;21.88;16.20;;;;;;;;;;10319410;28;20528;-60
2021/03/26 10:17:51;;;;;;;11.52;9.02;;;;;;;;;;10320117;28;20106;-61
2021/03/26 10:22:51;;;;;;;17.17;14.15;;;;;;;;;;10319625;28;20044;-60
2021/03/26 10:27:50;;;;;;;16.38;11.95;;;;;;;;;;10319340;28;20075;-61
2021/03/26 10:32:49;;;;;;;18.35;12.10;;;;;;;;;;10319048;28;20075;-61
2021/03/26 10:37:52;;;;;;;11.18;8.43;;;;;;;;;;10320772;28;20079;-61
2021/03/26 10:42:55;;;;;;;12.07;8.38;;;;;;;;;;10336004;28;20543;-61
2021/03/26 10:47:54;;;;;;;15.40;12.15;;;;;;;;;;10335673;28;20072;-59
2021/03/26 10:52:54;;;;;;;11.52;9.05;;;;;;;;;;10329424;28;20500;-59
2021/03/26 10:57:55;;;;;;;10.98;8.65;;;;;;;;;;10331894;28;20048;-59
2021/03/26 11:02:57;;;;;;;12.32;9.88;;;;;;;;;;10334994;28;20075;-59
2021/03/26 11:08:13;;;;;;;20.58;11.95;;;;;;;;;;10343488;28;20512;-59
2021/03/26 11:13:16;;;;;;;15.65;11.13;;;;;;;;;;10330157;28;20072;-59
2021/03/26 11:18:16;;;;;;;15.35;8.85;;;;;;;;;;10359158;28;20080;-60
2021/03/26 11:23:16;;;;;;;9.85;8.30;;;;;;;;;;10358689;28;20047;-59
2021/03/26 11:28:17;;;;;;;8.60;7.03;;;;;;;;;;10358615;28;20044;-59
2021/03/26 11:33:19;;;;;;;15.75;12.15;;;;;;;;;;10341563;28;20088;-59
2021/03/26 11:38:19;;;;;;;50.35;25.05;;;;;;;;;;10327917;28;20044;-60
2021/03/26 11:43:19;;;;;;;12.32;8.50;;;;;;;;;;10341810;28;20056;-60
2021/03/26 11:48:21;;;;;;;14.70;9.18;;;;;;;;;;10317364;28;20425;-58
2021/03/26 11:53:25;;;;;;;14.80;11.70;;;;;;;;;;10316240;28;20088;-59
2021/03/26 11:58:27;;;;;;;14.82;10.40;;;;;;;;;;10321600;28;20083;-60
2021/03/26 12:03:33;;;;;;;20.52;11.02;;;;;;;;;;10329430;28;20072;-58
2021/03/26 12:08:34;;;;;;;17.15;12.40;;;;;;;;;;10340962;28;20048;-58
2021/03/26 12:13:37;;;;;;;20.92;12.77;;;;;;;;;;10344508;28;20083;-58
2021/03/26 12:18:39;;;;;;;21.60;12.13;;;;;;;;;;10331646;28;20064;-58
2021/03/26 12:23:40;;;;;;;15.18;9.10;;;;;;;;;;10342386;28;20073;-58
2021/03/26 12:28:42;;;;;;;35.92;18.00;;;;;;;;;;10339459;28;20083;-58
2021/03/26 12:33:42;;;;;;;23.50;12.10;;;;;;;;;;10323186;28;20080;-58
2021/03/26 12:38:43;;;;;;;12.75;9.35;;;;;;;;;;10323095;28;20067;-59
2021/03/26 12:43:51;;;;;;;11.45;8.20;;;;;;;;;;10332690;28;20112;-58
2021/03/26 12:48:50;;;;;;;17.30;10.55;;;;;;;;;;10324037;28;20044;-58
2021/03/26 12:53:53;;;;;;;21.80;12.55;;;;;;;;;;10322206;28;20084;-59
2021/03/26 12:59:07;;;;;;;20.02;12.52;;;;;;;;;;10334070;28;20072;-59
2021/03/26 13:04:09;;;;;;;16.65;10.43;;;;;;;;;;10345583;28;20436;-59
2021/03/26 13:09:25;;;;;;;17.55;15.25;;;;;;;;;;10359658;28;20040;-60
2021/03/26 13:14:23;;;;;;;32.42;21.05;;;;;;;;;;10331159;28;20087;-62
2021/03/26 13:19:30;;;;;;;16.33;10.52;;;;;;;;;;10326261;28;20521;-58
2021/03/26 13:24:42;;;;;;;20.40;11.25;;;;;;;;;;10333597;28;20076;-59
2021/03/26 13:29:40;;;;;;;20.83;14.18;;;;;;;;;;10327885;28;20086;-60
2021/03/26 13:34:40;;;;;;;25.23;13.50;;;;;;;;;;10321808;28;20079;-60
2021/03/26 13:39:41;;;;;;;16.67;11.65;;;;;;;;;;10320724;28;20422;-61
2021/03/26 13:44:47;;;;;;;17.38;13.93;;;;;;;;;;10320513;28;20456;-60
2021/03/26 13:49:51;;;;;;;25.65;13.70;;;;;;;;;;10321691;28;20044;-60
2021/03/26 13:54:57;;;;;;;15.07;10.05;;;;;;;;;;10319756;28;20083;-60
2021/03/26 14:00:03;;;;;;;23.70;13.52;;;;;;;;;;10334468;28;20449;-60
2021/03/26 14:05:18;;;;;;;57.80;26.63;;;;;;;;;;10351944;28;20052;-60
2021/03/26 14:11:00;;;;;;;55.15;28.77;;;;;;;;;;10323708;28;20425;-59
2021/03/26 14:16:18;;;;;;;25.10;15.43;;;;;;;;;;10282885;28;20080;-58
2021/03/26 14:21:33;;;;;;;34.05;19.75;;;;;;;;;;10319626;28;20049;-59
2021/03/26 14:26:32;;;;;;;12.03;8.40;;;;;;;;;;10318563;28;20041;-61
2021/03/26 14:31:31;;;;;;;12.48;10.30;;;;;;;;;;10319391;28;20076;-60
2021/03/26 14:36:31;;;;;;;24.63;17.38;;;;;;;;;;10318171;28;20080;-61
2021/03/26 14:41:37;;;;;;;18.48;12.98;;;;;;;;;;10320256;28;20063;-60
2021/03/26 14:46:41;;;;;;;20.75;12.90;;;;;;;;;;10329477;28;20071;-60
2021/03/26 14:51:43;;;;;;;25.63;17.80;;;;;;;;;;10331754;28;20067;-60
2021/03/26 14:56:43;;;;;;;22.55;15.57;;;;;;;;;;10339918;28;20076;-60
2021/03/26 15:01:43;;;;;;;29.80;16.77;;;;;;;;;;10325945;28;20429;-62
2021/03/26 15:06:44;;;;;;;26.35;16.85;;;;;;;;;;10331663;28;20071;-62
2021/03/26 15:11:51;;;;;;;42.17;26.50;;;;;;;;;;10333081;28;20066;-63
2021/03/26 15:16:51;;;;;;;22.67;14.75;;;;;;;;;;10320759;28;20080;-62
2021/03/26 15:21:53;;;;;;;23.20;15.52;;;;;;;;;;10344091;28;20051;-63
2021/03/26 15:26:57;;;;;;;23.42;14.70;;;;;;;;;;10316823;28;20040;-63
2021/03/26 15:31:55;;;;;;;29.45;16.95;;;;;;;;;;10317430;28;20045;-62
2021/03/26 15:36:55;;;;;;;36.13;18.63;;;;;;;;;;10317040;28;20075;-61
2021/03/26 15:41:55;;;;;;;38.03;23.70;;;;;;;;;;10316678;28;20037;-63
2021/03/26 15:46:54;;;;;;;67.95;35.42;;;;;;;;;;10316764;28;20044;-62
2021/03/26 15:51:53;;;;;;;42.63;25.88;;;;;;;;;;10315848;28;20522;-63
2021/03/26 15:56:57;;;;;;;43.58;26.73;;;;;;;;;;10325186;28;20075;-62
2021/03/26 16:02:04;;;;;;;65.22;38.40;;;;;;;;;;10356517;28;20055;-62
2021/03/26 16:07:10;;;;;;;44.72;27.40;;;;;;;;;;10340038;28;20053;-62
2021/03/26 16:12:21;;;;;;;48.03;30.90;;;;;;;;;;10326538;28;20079;-61
2021/03/26 16:17:24;;;;;;;56.05;33.78;;;;;;;;;;10315748;28;20068;-62
2021/03/26 16:22:40;;;;;;;31.02;22.45;;;;;;;;;;10316043;28;20056;-62
2021/03/26 16:27:37;;;;;;;;;;;;;;;;;;10316952;28;20508;-61
2021/03/26 16:33:01;;;;;;;79.38;54.90;;;;;;;;;;10315956;28;19927;-62
2021/03/26 16:38:03;;;;;;;104.30;68.32;;;;;;;;;;10280173;28;20468;-61
2021/03/26 16:43:10;;;;;;;116.10;71.93;;;;;;;;;;10315968;28;20080;-63
2021/03/26 16:48:28;;;;;;;203.52;120.38;;;;;;;;;;10315569;28;20099;-62
2021/03/26 16:53:43;;;;;;;256.95;151.75;;;;;;;;;;10317860;28;20096;-63
2021/03/26 16:58:59;;;;;;;232.32;141.18;;;;;;;;;;10351731;28;20055;-64
2021/03/26 17:04:29;;;;;;;165.77;106.22;;;;;;;;;;10350887;28;20169;-63
2021/03/26 17:09:45;;;;;;;121.53;77.07;;;;;;;;;;10357999;28;20044;-63
2021/03/26 17:14:42;;;;;;;;;;;;;;;;;;10355777;28;20080;-62
2021/03/26 17:20:03;;;;;;;96.97;62.08;;;;;;;;;;10363688;28;19919;-63
2021/03/26 17:25:07;;;;;;;75.32;51.63;;;;;;;;;;10349324;28;20072;-61
2021/03/26 17:30:29;;;;;;;22.48;15.43;;;;;;;;;;10338708;28;20068;-61
2021/03/26 17:35:35;;;;;;;19.98;14.27;;;;;;;;;;10329833;28;20071;-62
2021/03/26 17:40:44;;;;;;;41.25;25.13;;;;;;;;;;10325613;28;20078;-62
2021/03/26 17:45:47;;;;;;;42.95;28.33;;;;;;;;;;10320745;28;20091;-63
2021/03/26 17:50:47;;;;;;;31.67;24.33;;;;;;;;;;10330783;28;20111;-63
2021/03/26 17:56:11;;;;;;;30.85;19.55;;;;;;;;;;10325037;28;20083;-63
2021/03/26 18:01:12;;;;;;;118.22;70.97;;;;;;;;;;10351496;28;20102;-63
2021/03/26 18:06:31;;;;;;;25.75;18.27;;;;;;;;;;10321229;28;20078;-63
2021/03/26 18:11:39;;;;;;;28.38;18.35;;;;;;;;;;10300240;28;20076;-63
2021/03/26 18:16:38;;;;;;;23.23;14.98;;;;;;;;;;10319457;28;20068;-64
2021/03/26 18:21:54;;;;;;;27.77;16.85;;;;;;;;;;10318931;28;20076;-63
2021/03/26 18:27:00;;;;;;;34.50;18.55;;;;;;;;;;10319367;28;20095;-61
2021/03/26 18:32:14;;;;;;;27.15;18.35;;;;;;;;;;10319258;28;20068;-61
2021/03/26 18:37:59;;;;;;;28.85;15.40;;;;;;;;;;10315977;28;20083;-63
2021/03/26 18:43:08;;;;;;;22.95;15.15;;;;;;;;;;10318253;28;20532;-61
2021/03/26 18:48:23;;;;;;;43.97;25.13;;;;;;;;;;10318653;28;20487;-61
2021/03/26 18:53:31;;;;;;;29.33;19.35;;;;;;;;;;10318109;28;20091;-62
2021/03/26 18:58:32;;;;;;;26.27;14.07;;;;;;;;;;10317480;28;20044;-63
2021/03/26 19:03:35;;;;;;;13.77;9.40;;;;;;;;;;10318143;28;20051;-62
2021/03/26 19:08:53;;;;;;;10.77;8.25;;;;;;;;;;10317991;28;20071;-63
2021/03/26 19:13:55;;;;;;;12.48;9.25;;;;;;;;;;10315302;28;20079;-62
2021/03/26 19:18:59;;;;;;;35.28;21.50;;;;;;;;;;10326678;28;20045;-64
2021/03/26 19:24:06;;;;;;;21.05;14.10;;;;;;;;;;10317169;28;20079;-63
2021/03/26 19:29:13;;;;;;;18.90;16.85;;;;;;;;;;10316481;28;20119;-64
2021/03/26 19:34:28;;;;;;;14.95;10.82;;;;;;;;;;10318539;28;20079;-64
2021/03/26 19:39:27;;;;;;;16.38;11.02;;;;;;;;;;10318526;28;20056;-64
2021/03/26 19:44:30;;;;;;;20.20;10.38;;;;;;;;;;10318103;28;20087;-62
2021/03/26 19:49:31;;;;;;;69.85;42.33;;;;;;;;;;10329337;28;20079;-63
2021/03/26 19:54:38;;;;;;;20.93;15.73;;;;;;;;;;10327194;28;20091;-63
2021/03/26 19:59:54;;;;;;;29.67;19.75;;;;;;;;;;10320394;28;20593;-62
2021/03/26 20:04:51;;;;;;;;;;;;;;;;;;10328392;28;20076;-64
2021/03/26 20:09:49;;;;;;;49.47;24.00;;;;;;;;;;10330617;28;19956;-63
2021/03/26 20:14:54;;;;;;;47.78;22.67;;;;;;;;;;10335920;28;20082;-64
2021/03/26 20:20:06;;;;;;;60.95;25.08;;;;;;;;;;10326642;28;20509;-64
2021/03/26 20:25:18;;;;;;;44.00;23.13;;;;;;;;;;10327218;28;20087;-65
2021/03/26 20:30:18;;;;;;;44.53;22.77;;;;;;;;;;10318960;28;20087;-64
2021/03/26 20:35:29;;;;;;;17.77;11.18;;;;;;;;;;10332240;28;20079;-63
2021/03/26 20:40:30;;;;;;;24.10;15.07;;;;;;;;;;10323109;28;20083;-63
2021/03/26 20:45:33;;;;;;;22.98;15.85;;;;;;;;;;10323006;28;20535;-62
2021/03/26 20:50:33;;;;;;;24.90;15.98;;;;;;;;;;10322570;28;20081;-64
2021/03/26 20:55:34;;;;;;;24.08;16.85;;;;;;;;;;10322524;28;20075;-64
2021/03/26 21:00:38;;;;;;;18.70;11.95;;;;;;;;;;10322295;28;20040;-63
2021/03/26 21:05:38;;;;;;;17.55;12.77;;;;;;;;;;10322301;28;20033;-64
2021/03/26 21:10:37;;;;;;;14.98;12.02;;;;;;;;;;10322566;28;20048;-64
2021/03/26 21:15:34;;;;;;;16.67;13.93;;;;;;;;;;10321858;28;20072;-65
2021/03/26 21:20:33;;;;;;;11.95;9.52;;;;;;;;;;10321498;28;20044;-64
2021/03/26 21:25:33;;;;;;;15.43;10.35;;;;;;;;;;10350055;28;20055;-63
2021/03/26 21:30:44;;;;;;;39.90;17.48;;;;;;;;;;10321283;28;20102;-64
2021/03/26 21:35:45;;;;;;;23.40;14.18;;;;;;;;;;10360113;28;20865;-63
2021/03/26 21:40:46;;;;;;;29.48;15.68;;;;;;;;;;10355951;28;20406;-64
2021/03/26 21:45:46;;;;;;;25.25;15.32;;;;;;;;;;10320187;28;20040;-63
2021/03/26 21:50:52;;;;;;;20.30;13.35;;;;;;;;;;10320163;28;20040;-63
2021/03/26 21:56:01;;;;;;;20.63;12.75;;;;;;;;;;10320151;28;20068;-64
2021/03/26 22:01:07;;;;;;;14.77;11.00;;;;;;;;;;10318655;28;20055;-63
2021/03/26 22:06:07;;;;;;;14.60;9.13;;;;;;;;;;10337626;28;20075;-64
2021/03/26 22:11:06;;;;;;;9.23;7.03;;;;;;;;;;10341296;28;20041;-64
2021/03/26 22:16:11;;;;;;;9.93;6.38;;;;;;;;;;10327855;28;20068;-64
2021/03/26 22:21:23;;;;;;;9.10;6.23;;;;;;;;;;10358090;28;20519;-63
2021/03/26 22:26:23;;;;;;;12.15;7.90;;;;;;;;;;10348420;28;20040;-63
2021/03/26 22:31:28;;;;;;;8.32;5.97;;;;;;;;;;10318840;28;20044;-62
2021/03/26 22:36:29;;;;;;;8.30;6.85;;;;;;;;;;10318520;28;20076;-63
2021/03/26 22:41:28;;;;;;;9.10;6.93;;;;;;;;;;10318208;28;20080;-65
2021/03/26 22:46:30;;;;;;;7.53;6.15;;;;;;;;;;10318656;28;20493;-63
2021/03/26 22:51:42;;;;;;;8.65;6.75;;;;;;;;;;10317845;28;20099;-63
2021/03/26 22:56:43;;;;;;;8.23;6.82;;;;;;;;;;10304613;28;20099;-64
2021/03/26 23:01:40;;;;;;;7.03;5.75;;;;;;;;;;10339381;28;20412;-63
2021/03/26 23:06:45;;;;;;;7.80;6.53;;;;;;;;;;10344285;28;20079;-63
2021/03/26 23:11:46;;;;;;;10.63;7.03;;;;;;;;;;10359003;28;20051;-64
2021/03/26 23:16:48;;;;;;;6.57;5.68;;;;;;;;;;10344176;28;20071;-64
2021/03/26 23:21:49;;;;;;;9.40;6.57;;;;;;;;;;10317157;28;20056;-64
2021/03/26 23:26:49;;;;;;;10.23;7.25;;;;;;;;;;10316852;28;20040;-63
2021/03/26 23:31:47;;;;;;;8.43;5.82;;;;;;;;;;10317164;28;20045;-63
2021/03/26 23:36:47;;;;;;;19.98;10.82;;;;;;;;;;10316320;28;20072;-64
2021/03/26 23:41:47;;;;;;;14.10;12.60;;;;;;;;;;10317046;28;20044;-63
2021/03/26 23:46:46;;;;;;;10.05;7.47;;;;;;;;;;10323914;28;20044;-63
2021/03/26 23:51:45;;;;;;;10.93;7.88;;;;;;;;;;10329173;28;20092;-64
2021/03/26 23:56:47;;;;;;;10.82;7.00;;;;;;;;;;10335622;28;20070;-64
